ADDS METAR Data INFO
IDs: Format: Raw Decoded Include TAF

Data at: 2218 UTC 24 Jun 2018

KFVX 242215Z AUTO 00000KT 10SM SCT049 SCT065 26/23 A2988 RMK AO2 T02620229
KFVX 242155Z AUTO 34004KT 5SM -RA SCT014 SCT033 BKN046 25/22 A2988 RMK AO2 LTG DSNT E AND SE P0006 T02460221
KFVX 242135Z AUTO 34007G16KT 300V010 5SM +VCTSRA BKN046 BKN060 OVC100 26/22 A2987 RMK AO2 LTG DSNT E P0002 T02550218
KFVX 242115Z AUTO 36003G15KT 10SM VCTS SCT045 BKN050 BKN060 29/22 A2987 RMK AO2 LTG DSNT NW THRU SE T02870217
KFVX 242055Z AUTO 21008KT 10SM SCT065 SCT080 SCT090 31/23 A2985 RMK AO2 LTG DSNT NW THRU E T03120227
KFVX 242035Z AUTO 20009KT 10SM SCT050 SCT065 BKN080 31/22 A2986 RMK AO2 LTG DSNT NE AND NW T03100224
KFVX 242015Z AUTO 20008G15KT 10SM SCT050 SCT065 31/22 A2985 RMK AO2 T03110220
KFVX 241955Z AUTO 23006KT 10SM SCT065 SCT085 31/22 A2986 RMK AO2 T03130219
KFVX 241935Z AUTO 24006KT 10SM SCT047 SCT055 SCT080 30/22 A2986 RMK AO2 T03030219
KFVX 241915Z AUTO 23008KT 10SM SCT047 SCT055 31/22 A2987 RMK AO2 LTG DSNT NE T03120215
KFVX 241855Z AUTO 24007G14KT 10SM SCT047 SCT055 31/21 A2988 RMK AO2 LTG DSNT SW T03070212
KFVX 241835Z AUTO 22007G14KT 10SM SCT045 31/22 A2988 RMK AO2 LTG DSNT NE T03090217
KFVX 241815Z AUTO 26005KT 230V290 10SM SCT042 31/21 A2988 RMK AO2 LTG DSNT N T03060213
KFVX 241755Z AUTO 23007KT 10SM SCT040 SCT046 31/22 A2989 RMK AO2 LTG DSNT NE T03050216 10306 20228
KFVX 241735Z AUTO 26006KT 10SM BKN038 BKN045 30/22 A2990 RMK AO2 T03030220
KFVX 241715Z AUTO 23006KT 10SM SCT038 BKN045 30/22 A2990 RMK AO2 T02950220
KFVX 241655Z AUTO 24005KT 10SM CLR 30/22 A2989 RMK AO2 T02990216
KFVX 241635Z AUTO 22005KT 10SM CLR 30/22 A2991 RMK AO2 T02960219
KFVX 241615Z AUTO 22008KT 200V270 10SM CLR 29/22 A2991 RMK AO2 T02890218
KFVX 241555Z AUTO 24004KT 10SM CLR 30/21 A2991 RMK AO2 T02950214
KFVX 241535Z AUTO 23004KT 10SM CLR 29/22 A2991 RMK AO2 T02910219
KFVX 241515Z AUTO 24004KT 10SM CLR 29/22 A2990 RMK AO2 T02870219
KFVX 241455Z AUTO 24004KT 10SM CLR 29/22 A2990 RMK AO2 T02850216
KFVX 241435Z AUTO 25004KT 10SM CLR 28/22 A2991 RMK AO2 T02830216
KFVX 241415Z AUTO 21004KT 10SM CLR 28/22 A2990 RMK AO2 T02760216
KFVX 241355Z AUTO 22003KT 10SM CLR 27/22 A2989 RMK AO2 T02690219
KFVX 241335Z AUTO 23006KT 10SM CLR 26/22 A2989 RMK AO2 T02600222
KFVX 241315Z AUTO 20004KT 10SM CLR 25/22 A2989 RMK AO2 T02470219
KFVX 241255Z AUTO 18003KT 10SM BKN100 24/22 A2989 RMK AO2 T02350216
KFVX 241235Z AUTO 00000KT 10SM OVC100 23/22 A2991 RMK AO2 T02300215
KFVX 241215Z AUTO 00000KT 10SM OVC100 23/22 A2990 RMK AO2 T02280215
KFVX 241155Z AUTO 00000KT 10SM OVC100 23/21 A2989 RMK AO2 T02260209 10226 20201
KFVX 241135Z AUTO 00000KT 10SM OVC100 22/21 A2989 RMK AO2 T02240212
KFVX 241115Z AUTO 25003KT 10SM OVC110 22/21 A2989 RMK AO2 T02220210
KFVX 241055Z AUTO 23005KT 10SM SCT065 SCT075 OVC110 22/21 A2989 RMK AO2 T02170211
KFVX 241035Z AUTO 21005KT 7SM SCT065 SCT090 BKN120 21/21 A2989 RMK AO2 T02130211
KFVX 241015Z AUTO 00000KT 5SM BR SCT065 BKN075 BKN100 21/21 A2987 RMK AO2 T02110210
KFVX 240955Z AUTO 00000KT 4SM BR SCT100 21/21 A2986 RMK AO2 T02110208
KFVX 240935Z AUTO 00000KT 5SM BR SCT100 20/20 A2986 RMK AO2 T02020201
KFVX 240915Z AUTO 00000KT 5SM BR CLR 21/21 A2985 RMK AO2 LTG DSNT W T02110211
KFVX 240855Z AUTO 00000KT 7SM CLR 21/21 A2985 RMK AO2 T02130211
KFVX 240835Z AUTO 00000KT 5SM BR CLR 21/21 A2985 RMK AO2 T02100210
KFVX 240815Z AUTO 00000KT 5SM BR CLR 21/21 A2985 RMK AO2 T02100210
KFVX 240755Z AUTO 00000KT 10SM CLR 22/22 A2985 RMK AO2 T02150215
KFVX 240735Z AUTO 00000KT 5SM BR SCT100 21/21 A2985 RMK AO2 T02130213
KFVX 240715Z AUTO 00000KT 10SM BKN100 22/22 A2985 RMK AO2 T02150215
KFVX 240655Z AUTO 00000KT 7SM OVC100 22/22 A2986 RMK AO2 T02160215
KFVX 240635Z AUTO 00000KT 7SM OVC090 22/22 A2986 RMK AO2 T02150215
KFVX 240615Z AUTO 00000KT 7SM SCT080 OVC090 22/22 A2986 RMK AO2 T02170215
KFVX 240555Z AUTO 00000KT 5SM BR OVC090 22/22 A2986 RMK AO2 T02160216 10250 20207
KFVX 240535Z AUTO 00000KT 3/4SM BR BKN002 BKN080 OVC090 21/21 A2986 RMK AO2 T02110211
KFVX 240515Z AUTO 00000KT 2SM BR SCT003 21/21 A2986 RMK AO2 T02120212
KFVX 240455Z AUTO 00000KT 1/2SM FG BKN003 22/22 A2986 RMK AO2 VIS 1/4V5 T02150215 402890197
KFVX 240435Z AUTO 00000KT 3SM BR CLR 21/21 A2986 RMK AO2 T02090208
KFVX 240415Z AUTO 00000KT 5SM BR CLR 21/21 A2986 RMK AO2 T02110209
KFVX 240355Z AUTO 00000KT 7SM CLR 21/21 A2986 RMK AO2 T02120211
KFVX 240335Z AUTO 00000KT 10SM CLR 22/22 A2986 RMK AO2 T02230221
KFVX 240315Z AUTO 00000KT 7SM CLR 22/22 A2985 RMK AO2 T02160215
KFVX 240255Z AUTO 00000KT 10SM CLR 23/22 A2985 RMK AO2 T02250222
KFVX 240235Z AUTO 00000KT 10SM CLR 22/22 A2985 RMK AO2 T02230219
KFVX 240215Z AUTO 00000KT 10SM CLR 23/22 A2984 RMK AO2 T02260221
KFVX 240155Z AUTO 00000KT 10SM CLR 22/22 A2983 RMK AO2 T02190216
KFVX 240135Z AUTO 00000KT 10SM CLR 23/22 A2982 RMK AO2 T02250220
KFVX 240115Z AUTO 00000KT 10SM CLR 22/22 A2982 RMK AO2 T02210220
KFVX 240055Z AUTO 00000KT 10SM CLR 24/22 A2982 RMK AO2 T02350223
KFVX 240035Z AUTO 00000KT 10SM CLR 24/22 A2982 RMK AO2 T02350223
KFVX 240015Z AUTO 00000KT 10SM CLR 24/23 A2981 RMK AO2 T02410225
KFVX 232355Z AUTO 19003KT 10SM CLR 25/23 A2981 RMK AO2 T02480228 10289 20248
KFVX 232335Z AUTO 19003KT 10SM CLR 26/23 A2981 RMK AO2 T02610230
KFVX 232315Z AUTO 20003KT 10SM CLR 27/23 A2981 RMK AO2 T02720226
KFVX 232255Z AUTO 21003KT 10SM CLR 28/22 A2980 RMK AO2 T02750223
KFVX 232235Z AUTO 24003KT 10SM CLR 27/22 A2980 RMK AO2 T02730220
KFVX 232215Z AUTO 00000KT 10SM CLR 27/21 A2980 RMK AO2 T02700213
KFVX 232155Z AUTO 01003KT 10SM SCT026 SCT039 BKN120 28/21 A2979 RMK AO2 T02750212
KFVX 232135Z AUTO 23003KT 10SM BKN100 BKN120 28/23 A2980 RMK AO2 T02780225
KFVX 232115Z AUTO 22003KT 10SM SCT100 28/22 A2979 RMK AO2 T02770222
KFVX 232055Z AUTO 23005KT 10SM SCT038 28/22 A2980 RMK AO2 T02800215
KFVX 232035Z AUTO 20008KT 10SM SCT036 29/22 A2979 RMK AO2 T02880223
KFVX 232015Z AUTO 22006KT 10SM SCT032 SCT100 29/22 A2979 RMK AO2 T02860215
KFVX 231955Z AUTO 20006KT 10SM SCT030 BKN100 28/22 A2980 RMK AO2 T02830219
KFVX 231935Z AUTO 22006KT 10SM SCT028 OVC100 28/22 A2981 RMK AO2 T02810221
KFVX 231915Z AUTO 21006KT 10SM SCT028 BKN100 27/22 A2981 RMK AO2 T02740216
KFVX 231855Z AUTO 21005KT 10SM BKN100 27/22 A2981 RMK AO2 T02740221
KFVX 231835Z AUTO 21006KT 10SM SCT023 OVC100 27/22 A2982 RMK AO2 T02700219
KFVX 231815Z AUTO 22004KT 10SM SCT023 BKN100 27/22 A2983 RMK AO2 T02710216
KFVX 231755Z AUTO 16004KT 10SM SCT020 SCT026 BKN110 27/22 A2983 RMK AO2 T02650217 10266 20200
KFVX 231735Z AUTO 19004KT 10SM BKN020 BKN070 OVC120 26/22 A2984 RMK AO2 T02600215
KFVX 231715Z AUTO 00000KT 10SM BKN020 OVC070 25/22 A2985 RMK AO2 T02540215
KFVX 231655Z AUTO 24004KT 10SM SCT015 OVC022 25/22 A2986 RMK AO2 T02500216
KFVX 231635Z AUTO 23004KT 10SM OVC015 24/21 A2986 RMK AO2 T02400212
KFVX 231615Z AUTO 24003KT 10SM OVC015 24/21 A2986 RMK AO2 T02370212
KFVX 231555Z AUTO 24005KT 10SM OVC013 24/21 A2985 RMK AO2 T02390212
KFVX 231535Z AUTO 23004KT 10SM OVC013 23/21 A2985 RMK AO2 T02340212
KFVX 231515Z AUTO 24005KT 10SM SCT008 OVC014 23/21 A2985 RMK AO2 T02290209
KFVX 231455Z AUTO 24004KT 10SM OVC010 22/21 A2985 RMK AO2 T02200208
KFVX 231435Z AUTO 23004KT 10SM OVC010 22/21 A2985 RMK AO2 T02210207
KFVX 231415Z AUTO 24003KT 10SM BKN007 OVC012 22/21 A2985 RMK AO2 T02180208
KFVX 231355Z AUTO 20004KT 10SM BKN007 OVC011 22/21 A2985 RMK AO2 T02160208
KFVX 231335Z AUTO 00000KT 7SM OVC005 21/21 A2985 RMK AO2 T02120206
KFVX 231315Z AUTO 00000KT 5SM BR OVC003 21/21 A2986 RMK AO2 T02100206
KFVX 231255Z AUTO 00000KT 7SM OVC003 21/21 A2985 RMK AO2 T02080205
KFVX 231235Z AUTO 00000KT 5SM BR OVC003 20/20 A2985 RMK AO2 LTG DSNT N T02030200
KFVX 231215Z AUTO 00000KT 1SM BR OVC003 20/20 A2985 RMK AO2 T02010200
KFVX 231155Z AUTO 00000KT 1 1/2SM BR OVC003 20/20 A2984 RMK AO2 60001 70078 T02000200 10202 20197
KFVX 231135Z AUTO 00000KT 3/4SM BR OVC003 20/20 A2984 RMK AO2 T02000200
KFVX 231115Z AUTO 00000KT 3/4SM BR OVC003 20/20 A2983 RMK AO2 T01980198
KFVX 231055Z AUTO 00000KT 1/2SM FG OVC003 20/20 A2981 RMK AO2 T01980198
KFVX 231035Z AUTO 00000KT 1/2SM FG OVC003 20/20 A2981 RMK AO2 T01980198